Time;durP1;ratioP1;P1;durP2;ratioP2;P2;SDS_P1;SDS_P2;PMS_P1;PMS_P2;Temp;Humidity;BMP_temperature;BMP_pressure;BME280_temperature;BME280_humidity;BME280_pressure;Samples;Min_cycle;Max_cycle;Signal;HPM_P1;HPM_P2
2023/05/31 00:01:17;;;;;;;4.85;4.32;;;20.80;99.90;;;;;;5092125;28;20257;-78
2023/05/31 00:03:44;;;;;;;4.25;3.63;;;20.60;99.90;;;;;;5091766;28;20255;-77
2023/05/31 00:06:11;;;;;;;4.35;3.83;;;20.60;99.90;;;;;;5091812;28;20268;-77
2023/05/31 00:08:38;;;;;;;4.15;3.72;;;20.60;99.90;;;;;;5091702;28;20672;-77
2023/05/31 00:11:07;;;;;;;3.97;2.90;;;20.70;99.90;;;;;;5083511;28;20307;-77
2023/05/31 00:13:34;;;;;;;6.63;3.60;;;20.70;99.90;;;;;;5091571;28;20244;-77
2023/05/31 00:16:01;;;;;;;3.78;3.40;;;20.70;99.90;;;;;;5091806;28;20396;-77
2023/05/31 00:18:28;;;;;;;4.05;3.58;;;20.70;99.90;;;;;;5090898;28;20282;-77
2023/05/31 00:20:55;;;;;;;4.13;3.22;;;20.70;99.90;;;;;;5092092;28;20244;-76
2023/05/31 00:23:22;;;;;;;6.13;3.25;;;20.70;99.90;;;;;;5091838;28;20237;-76
2023/05/31 00:25:49;;;;;;;4.45;3.10;;;20.70;99.90;;;;;;5091486;28;20309;-78
2023/05/31 00:28:17;;;;;;;4.65;2.90;;;20.60;99.90;;;;;;5091732;28;20450;-78
2023/05/31 00:30:44;;;;;;;3.53;3.15;;;20.60;99.90;;;;;;5091107;28;20225;-77
2023/05/31 00:33:12;;;;;;;3.47;3.17;;;20.60;99.90;;;;;;5091424;28;20681;-78
2023/05/31 00:35:39;;;;;;;6.03;3.35;;;20.60;99.90;;;;;;5090915;28;20323;-76
2023/05/31 00:38:07;;;;;;;4.05;3.35;;;20.60;99.90;;;;;;5091322;28;20244;-77
2023/05/31 00:40:34;;;;;;;4.28;3.17;;;20.50;99.90;;;;;;5090878;28;20245;-78
2023/05/31 00:43:01;;;;;;;3.53;2.92;;;20.50;99.90;;;;;;5091480;28;20206;-76
2023/05/31 00:45:31;;;;;;;3.17;2.75;;;20.40;99.90;;;;;;5090985;28;20293;-75
2023/05/31 00:48:01;;;;;;;5.10;3.40;;;20.40;99.90;;;;;;5091309;28;20213;-78
2023/05/31 00:50:28;;;;;;;2.97;2.47;;;20.40;99.90;;;;;;5091464;28;20283;-76
2023/05/31 00:52:56;;;;;;;5.00;2.90;;;20.40;99.90;;;;;;5091247;28;20673;-77
2023/05/31 00:55:24;;;;;;;4.28;2.78;;;20.40;99.90;;;;;;5091667;28;20237;-78
2023/05/31 00:57:51;;;;;;;5.15;3.22;;;20.40;99.90;;;;;;5090833;28;20229;-76
2023/05/31 01:00:18;;;;;;;3.03;2.80;;;20.30;99.90;;;;;;5090924;28;20233;-76
2023/05/31 01:02:50;;;;;;;4.15;2.80;;;20.30;99.90;;;;;;5090723;28;20232;-78
2023/05/31 01:05:17;;;;;;;4.68;2.75;;;20.30;99.90;;;;;;5090947;28;20263;-77
2023/05/31 01:07:45;;;;;;;5.90;3.22;;;20.30;99.90;;;;;;5090381;28;20205;-77
2023/05/31 01:10:14;;;;;;;3.90;2.67;;;20.30;99.90;;;;;;5090989;28;20236;-78
2023/05/31 01:12:48;;;;;;;3.05;2.53;;;20.30;99.90;;;;;;5090366;28;20209;-77
2023/05/31 01:15:23;;;;;;;2.78;2.58;;;20.30;99.90;;;;;;5090829;28;20656;-76
2023/05/31 01:18:00;;;;;;;5.97;3.80;;;20.20;99.90;;;;;;5090422;28;20232;-77
2023/05/31 01:20:32;;;;;;;3.00;2.53;;;20.20;99.90;;;;;;5090839;28;20295;-76
2023/05/31 01:23:12;;;;;;;6.75;3.97;;;20.20;99.90;;;;;;5090421;28;20208;-76
2023/05/31 01:26:06;;;;;;;5.90;3.38;;;20.20;99.90;;;;;;5090288;28;20237;-75
2023/05/31 01:28:37;;;;;;;4.28;3.65;;;20.20;99.90;;;;;;5085823;28;20236;-76
2023/05/31 01:31:08;;;;;;;3.22;2.90;;;20.10;99.90;;;;;;5090582;28;20634;-78
2023/05/31 01:33:36;;;;;;;4.65;2.67;;;20.00;99.90;;;;;;5089800;28;20266;-79
2023/05/31 01:36:03;;;;;;;3.60;3.08;;;19.90;99.90;;;;;;5090364;28;20263;-77
2023/05/31 01:38:30;;;;;;;4.25;2.83;;;19.80;99.90;;;;;;5090218;28;20292;-77
2023/05/31 01:40:58;;;;;;;2.83;2.63;;;19.90;99.90;;;;;;5090916;28;20241;-78
2023/05/31 01:43:27;;;;;;;3.97;3.20;;;19.90;99.90;;;;;;5090837;28;20205;-77
2023/05/31 01:45:58;;;;;;;3.25;2.17;;;19.90;99.90;;;;;;5090789;28;20201;-77
2023/05/31 01:48:26;;;;;;;4.82;3.50;;;19.90;99.90;;;;;;5090764;28;20217;-79
2023/05/31 01:50:54;;;;;;;4.45;2.80;;;19.70;99.90;;;;;;5090201;28;20233;-76
2023/05/31 01:53:21;;;;;;;3.15;2.80;;;19.70;99.90;;;;;;5090996;28;20202;-77
2023/05/31 01:55:48;;;;;;;2.58;2.38;;;19.70;99.90;;;;;;5089990;28;20225;-76
2023/05/31 01:58:18;;;;;;;4.18;3.22;;;19.70;99.90;;;;;;5090314;28;20294;-77
2023/05/31 02:00:45;;;;;;;3.55;2.72;;;19.70;99.90;;;;;;5089715;28;20326;-77
2023/05/31 02:03:14;;;;;;;4.43;2.80;;;19.70;99.90;;;;;;5090357;28;20267;-76
2023/05/31 02:05:55;;;;;;;4.78;2.60;;;19.70;99.90;;;;;;5089562;28;20209;-77
2023/05/31 02:08:23;;;;;;;3.55;2.67;;;19.60;99.90;;;;;;5090436;28;20219;-79
2023/05/31 02:10:50;;;;;;;6.35;3.22;;;19.60;99.90;;;;;;5090114;28;20202;-78
2023/05/31 02:13:17;;;;;;;6.28;3.40;;;19.60;99.90;;;;;;5089985;28;20205;-77
2023/05/31 02:15:44;;;;;;;2.78;2.40;;;19.50;99.90;;;;;;5090132;28;20734;-77
2023/05/31 02:18:16;;;;;;;4.75;4.00;;;19.50;99.90;;;;;;5090247;28;20276;-77
2023/05/31 02:20:43;;;;;;;3.67;2.90;;;19.50;99.90;;;;;;5089728;28;20212;-77
2023/05/31 02:23:10;;;;;;;3.08;2.88;;;19.50;99.90;;;;;;5090286;28;20233;-77
2023/05/31 02:25:37;;;;;;;3.92;3.08;;;19.50;99.90;;;;;;5089799;28;20394;-79
2023/05/31 02:28:04;;;;;;;3.00;2.70;;;19.50;99.90;;;;;;5090367;28;20237;-76
2023/05/31 02:30:32;;;;;;;3.42;2.75;;;19.40;99.90;;;;;;5075977;28;20237;-76
2023/05/31 02:33:00;;;;;;;3.15;2.83;;;19.30;99.90;;;;;;5090094;28;20249;-78
2023/05/31 02:35:28;;;;;;;2.50;2.30;;;19.10;99.90;;;;;;5089727;28;20320;-77
2023/05/31 02:37:55;;;;;;;3.63;3.33;;;19.20;99.90;;;;;;5090287;28;20268;-77
2023/05/31 02:40:22;;;;;;;6.88;3.03;;;19.20;99.90;;;;;;5090497;28;20228;-78
2023/05/31 02:42:49;;;;;;;4.28;3.20;;;19.20;99.90;;;;;;5093483;28;20248;-78
2023/05/31 02:45:16;;;;;;;3.60;2.80;;;19.20;99.90;;;;;;5093673;28;20245;-77
2023/05/31 02:47:43;;;;;;;4.57;3.28;;;19.20;99.90;;;;;;5093367;28;20290;-76
2023/05/31 02:50:11;;;;;;;2.97;2.65;;;19.20;99.90;;;;;;5093578;28;20241;-78
2023/05/31 02:52:40;;;;;;;2.95;2.65;;;19.10;99.90;;;;;;5093355;28;20212;-77
2023/05/31 02:55:08;;;;;;;5.20;3.25;;;19.10;99.90;;;;;;5093507;28;20209;-76
2023/05/31 02:57:35;;;;;;;3.95;3.40;;;19.20;99.90;;;;;;5092779;28;20273;-76
2023/05/31 03:00:10;;;;;;;3.50;3.10;;;19.10;99.90;;;;;;5082454;28;20241;-77
2023/05/31 03:02:37;;;;;;;3.10;2.83;;;19.10;99.90;;;;;;5091122;28;20204;-76
2023/05/31 03:05:05;;;;;;;6.60;3.35;;;19.10;99.90;;;;;;5093370;28;20244;-78
2023/05/31 03:07:32;;;;;;;3.05;2.75;;;19.10;99.90;;;;;;5092816;28;20791;-78
2023/05/31 03:10:01;;;;;;;3.47;3.13;;;19.10;99.90;;;;;;5093247;28;20236;-77
2023/05/31 03:12:27;;;;;;;3.55;3.00;;;19.10;99.90;;;;;;5093273;28;20224;-78
2023/05/31 03:14:54;;;;;;;3.75;3.45;;;19.10;99.90;;;;;;5093408;28;20668;-76
2023/05/31 03:17:22;;;;;;;5.25;4.72;;;19.10;99.90;;;;;;5092943;28;20225;-76
2023/05/31 03:19:49;;;;;;;3.50;3.20;;;19.10;99.90;;;;;;5092483;28;20875;-76
2023/05/31 03:22:16;;;;;;;6.03;3.60;;;19.10;99.90;;;;;;5092919;28;20416;-76
2023/05/31 03:24:42;;;;;;;4.00;3.65;;;19.00;99.90;;;;;;5092498;28;20750;-75
2023/05/31 03:27:11;;;;;;;6.45;3.97;;;19.00;99.90;;;;;;5092905;28;20641;-77
2023/05/31 03:29:42;;;;;;;4.80;3.13;;;19.00;99.90;;;;;;5092178;28;20245;-76
2023/05/31 03:32:09;;;;;;;5.20;2.95;;;19.00;99.90;;;;;;5092487;28;20245;-77
2023/05/31 03:34:36;;;;;;;3.92;3.15;;;19.00;99.90;;;;;;5091926;28;20700;-77
2023/05/31 03:37:03;;;;;;;4.50;3.08;;;19.00;99.90;;;;;;5092895;28;20229;-77
2023/05/31 03:39:31;;;;;;;4.35;3.50;;;19.10;99.90;;;;;;5092299;28;20290;-77
2023/05/31 03:41:58;;;;;;;4.22;3.65;;;19.10;99.90;;;;;;5092520;28;20224;-75
2023/05/31 03:44:26;;;;;;;4.50;3.20;;;19.10;99.90;;;;;;5092837;28;20298;-75
2023/05/31 03:46:53;;;;;;;3.80;3.15;;;19.10;99.90;;;;;;5092071;28;20229;-77
2023/05/31 03:49:20;;;;;;;4.47;3.53;;;19.00;99.90;;;;;;5092242;28;20241;-75
2023/05/31 03:51:47;;;;;;;6.65;4.13;;;19.00;99.90;;;;;;5091926;28;20288;-75
2023/05/31 03:54:14;;;;;;;4.47;3.35;;;18.90;99.90;;;;;;5092770;28;20244;-78
2023/05/31 03:56:41;;;;;;;4.60;3.90;;;18.90;99.90;;;;;;5091774;28;20700;-78
2023/05/31 03:59:09;;;;;;;3.35;2.70;;;18.80;99.90;;;;;;5092229;28;20213;-78
2023/05/31 04:01:38;;;;;;;5.45;4.22;;;18.70;99.90;;;;;;5091462;28;20642;-79
2023/05/31 04:04:04;;;;;;;5.55;3.33;;;18.80;99.90;;;;;;5088340;28;20285;-77
2023/05/31 04:06:31;;;;;;;3.95;3.25;;;18.80;99.90;;;;;;5081664;28;20262;-79
2023/05/31 04:08:58;;;;;;;2.92;2.38;;;18.90;99.90;;;;;;5091976;28;20288;-78
2023/05/31 04:11:25;;;;;;;5.32;3.38;;;18.80;99.90;;;;;;5092398;28;20249;-77
2023/05/31 04:13:53;;;;;;;4.88;3.55;;;18.90;99.90;;;;;;5091749;28;20205;-77
2023/05/31 04:16:20;;;;;;;3.40;2.97;;;18.80;99.90;;;;;;5091688;28;20571;-77
2023/05/31 04:18:48;;;;;;;6.35;3.65;;;18.70;99.90;;;;;;5091525;28;20273;-75
2023/05/31 04:21:15;;;;;;;4.03;2.80;;;18.60;99.90;;;;;;5092189;28;20202;-78
2023/05/31 04:23:42;;;;;;;4.43;3.00;;;18.60;99.90;;;;;;5091376;28;20211;-74
2023/05/31 04:26:16;;;;;;;6.03;3.20;;;18.70;99.90;;;;;;5091679;28;20259;-74
2023/05/31 04:28:43;;;;;;;4.53;3.03;;;18.60;99.90;;;;;;5091107;28;20205;-79
2023/05/31 04:31:11;;;;;;;3.95;3.63;;;18.40;99.90;;;;;;5091494;28;20730;-77
2023/05/31 04:33:38;;;;;;;4.85;3.65;;;18.40;99.90;;;;;;5091101;28;20216;-75
2023/05/31 04:36:08;;;;;;;4.22;3.10;;;18.60;99.90;;;;;;5091668;28;20704;-77
2023/05/31 04:38:35;;;;;;;5.00;3.20;;;18.80;99.90;;;;;;5090951;28;20233;-78
2023/05/31 04:41:03;;;;;;;3.28;2.58;;;18.90;99.90;;;;;;5091441;28;20651;-78
2023/05/31 04:43:30;;;;;;;3.38;3.08;;;18.90;99.90;;;;;;5091094;28;20294;-77
2023/05/31 04:45:57;;;;;;;5.85;2.88;;;19.00;99.90;;;;;;5091544;28;20233;-76
2023/05/31 04:48:26;;;;;;;9.00;3.38;;;19.00;99.90;;;;;;5091831;28;20205;-78
2023/05/31 04:50:54;;;;;;;5.13;3.10;;;18.90;99.90;;;;;;5085471;28;20240;-75
2023/05/31 04:53:23;;;;;;;4.57;2.42;;;18.90;99.90;;;;;;5083510;28;20201;-77
2023/05/31 04:55:51;;;;;;;2.70;2.50;;;18.90;99.90;;;;;;5090278;28;20206;-77
2023/05/31 04:58:19;;;;;;;3.53;2.25;;;19.00;99.90;;;;;;5091040;28;20233;-76
2023/05/31 05:00:46;;;;;;;3.95;3.30;;;19.00;99.90;;;;;;5090262;28;20205;-78
2023/05/31 05:03:14;;;;;;;4.13;3.13;;;19.10;99.90;;;;;;5090481;28;20585;-77
2023/05/31 05:05:41;;;;;;;5.82;3.60;;;19.10;99.90;;;;;;5090891;28;20212;-76
2023/05/31 05:08:09;;;;;;;7.88;3.15;;;19.10;99.90;;;;;;5090946;28;20617;-77
2023/05/31 05:10:37;;;;;;;3.05;2.75;;;19.10;99.90;;;;;;5090956;28;20614;-77
2023/05/31 05:13:04;;;;;;;6.38;3.17;;;19.10;99.90;;;;;;5090954;28;20206;-77
2023/05/31 05:15:31;;;;;;;4.10;3.72;;;19.10;99.90;;;;;;5090697;28;20236;-76
2023/05/31 05:17:58;;;;;;;4.30;3.20;;;19.20;99.90;;;;;;5090538;28;20257;-78
2023/05/31 05:20:24;;;;;;;4.25;3.45;;;19.30;99.90;;;;;;5091245;28;20213;-77
2023/05/31 05:22:52;;;;;;;7.40;4.10;;;19.30;99.90;;;;;;5090696;28;20746;-76
2023/05/31 05:25:20;;;;;;;4.43;3.45;;;19.20;99.90;;;;;;5090653;28;20201;-77
2023/05/31 05:27:48;;;;;;;8.15;3.95;;;19.30;99.90;;;;;;5090414;28;20205;-77
2023/05/31 05:30:16;;;;;;;3.30;3.00;;;19.40;99.90;;;;;;5090790;28;20201;-78
2023/05/31 05:32:43;;;;;;;3.70;3.40;;;19.50;99.90;;;;;;5090313;28;20220;-79
2023/05/31 05:35:10;;;;;;;9.68;3.90;;;19.40;99.90;;;;;;5090501;28;20214;-76
2023/05/31 05:37:37;;;;;;;5.80;3.60;;;19.40;99.90;;;;;;5090265;28;20741;-77
2023/05/31 05:40:06;;;;;;;5.07;4.57;;;19.40;99.90;;;;;;5090389;28;20208;-78
2023/05/31 05:42:36;;;;;;;3.85;3.38;;;19.50;99.90;;;;;;5090156;28;20212;-77
2023/05/31 05:45:06;;;;;;;5.65;4.35;;;19.60;99.90;;;;;;5090757;28;20206;-77
2023/05/31 05:47:34;;;;;;;6.00;3.47;;;19.60;99.90;;;;;;5062617;28;20227;-77
2023/05/31 05:50:01;;;;;;;6.10;3.70;;;19.60;99.90;;;;;;5090488;28;20300;-76
2023/05/31 05:52:28;;;;;;;6.60;3.45;;;19.60;99.90;;;;;;5090321;28;20669;-75
2023/05/31 05:54:55;;;;;;;5.25;3.22;;;19.70;99.90;;;;;;5090781;28;20643;-74
2023/05/31 05:57:22;;;;;;;4.03;3.67;;;19.80;99.90;;;;;;5090558;28;20286;-74
2023/05/31 05:59:49;;;;;;;6.43;4.10;;;19.80;99.90;;;;;;5089882;28;20793;-74
2023/05/31 06:02:17;;;;;;;7.70;4.22;;;19.80;99.90;;;;;;5090123;28;20943;-75
2023/05/31 06:04:44;;;;;;;4.38;3.85;;;19.80;99.90;;;;;;5089934;28;20233;-75
2023/05/31 06:07:11;;;;;;;4.82;4.30;;;19.80;99.90;;;;;;5090341;28;20209;-74
2023/05/31 06:09:38;;;;;;;8.82;4.32;;;19.80;99.90;;;;;;5090160;28;20214;-75
2023/05/31 06:12:06;;;;;;;10.30;5.70;;;19.70;99.90;;;;;;5090171;28;20233;-75
2023/05/31 06:14:33;;;;;;;5.07;4.50;;;19.70;99.90;;;;;;5089766;28;20206;-76
2023/05/31 06:17:00;;;;;;;6.95;4.43;;;19.70;99.90;;;;;;5093189;28;20232;-74
2023/05/31 06:19:28;;;;;;;14.77;4.50;;;19.80;99.90;;;;;;5094262;28;20264;-74
2023/05/31 06:21:57;;;;;;;5.95;4.03;;;19.90;99.90;;;;;;5094362;28;20248;-75
2023/05/31 06:24:24;;;;;;;7.03;4.20;;;19.90;99.90;;;;;;5094539;28;20549;-77
2023/05/31 06:26:51;;;;;;;8.90;4.07;;;19.90;99.90;;;;;;5093544;28;20216;-77
2023/05/31 06:29:18;;;;;;;6.25;3.88;;;19.90;99.90;;;;;;5094005;28;20357;-77
2023/05/31 06:31:45;;;;;;;5.15;4.32;;;19.90;99.90;;;;;;5093345;28;20205;-76
2023/05/31 06:34:12;;;;;;;8.60;4.22;;;20.00;99.90;;;;;;5093793;28;20237;-76
2023/05/31 06:36:42;;;;;;;5.45;3.92;;;19.90;99.90;;;;;;5093434;28;20306;-74
2023/05/31 06:39:09;;;;;;;6.80;4.68;;;19.80;99.90;;;;;;5093576;28;20825;-74
2023/05/31 06:41:37;;;;;;;4.07;3.35;;;19.80;99.90;;;;;;5093181;28;20215;-77
2023/05/31 06:44:04;;;;;;;4.53;3.53;;;19.80;99.90;;;;;;5093550;28;20233;-75
2023/05/31 06:46:31;;;;;;;6.05;4.72;;;19.80;99.90;;;;;;5093483;28;20262;-76
2023/05/31 06:48:58;;;;;;;5.25;4.03;;;20.00;99.90;;;;;;5093642;28;20205;-77
2023/05/31 06:51:25;;;;;;;3.95;3.30;;;20.00;99.90;;;;;;5093623;28;20209;-75
2023/05/31 06:53:53;;;;;;;9.07;4.65;;;20.10;99.90;;;;;;5093603;28;20634;-75
2023/05/31 06:56:20;;;;;;;5.90;4.28;;;20.10;99.90;;;;;;5093200;28;20245;-77
2023/05/31 06:58:48;;;;;;;7.70;4.93;;;20.10;99.90;;;;;;5093003;28;20229;-76
2023/05/31 07:01:15;;;;;;;5.88;5.28;;;20.30;99.90;;;;;;5093592;28;20205;-78
2023/05/31 07:03:42;;;;;;;6.32;4.88;;;20.40;99.90;;;;;;5092908;28;20237;-76
2023/05/31 07:06:08;;;;;;;5.35;4.85;;;20.50;99.90;;;;;;5093559;28;20205;-77
2023/05/31 07:08:35;;;;;;;7.30;5.03;;;20.60;99.90;;;;;;5092763;28;20295;-75
2023/05/31 07:11:04;;;;;;;9.30;5.32;;;20.40;99.90;;;;;;5093016;28;20240;-75
2023/05/31 07:13:31;;;;;;;7.43;5.38;;;20.50;99.90;;;;;;5092846;28;20237;-76
2023/05/31 07:15:58;;;;;;;6.53;5.93;;;20.50;99.90;;;;;;5093363;28;20241;-75
2023/05/31 07:18:25;;;;;;;8.35;6.07;;;20.60;99.90;;;;;;5092892;28;20694;-77
2023/05/31 07:20:56;;;;;;;7.30;6.38;;;20.70;99.90;;;;;;5093120;28;20241;-78
2023/05/31 07:23:24;;;;;;;9.25;6.07;;;20.80;99.90;;;;;;5093176;28;20205;-77
2023/05/31 07:25:51;;;;;;;8.02;5.78;;;20.90;99.90;;;;;;5092530;28;20205;-77
2023/05/31 07:28:19;;;;;;;6.80;6.05;;;20.90;99.90;;;;;;5092314;28;20240;-77
2023/05/31 07:30:46;;;;;;;10.35;6.15;;;21.00;99.90;;;;;;5092771;28;20209;-77
2023/05/31 07:33:13;;;;;;;9.52;6.65;;;21.40;99.90;;;;;;5092541;28;20213;-74
2023/05/31 07:35:40;;;;;;;7.32;6.43;;;21.80;99.90;;;;;;5092589;28;20210;-78
2023/05/31 07:38:07;;;;;;;8.15;6.03;;;21.60;99.90;;;;;;5092404;28;20241;-78
2023/05/31 07:40:34;;;;;;;7.28;5.47;;;21.40;99.90;;;;;;5091934;28;20205;-78
2023/05/31 07:43:01;;;;;;;7.50;6.80;;;21.30;99.90;;;;;;5092848;28;20250;-77
2023/05/31 07:45:29;;;;;;;9.02;6.55;;;21.50;99.90;;;;;;5092318;28;20701;-76
2023/05/31 07:47:58;;;;;;;10.95;6.45;;;21.40;99.90;;;;;;5092744;28;20209;-75
2023/05/31 07:50:25;;;;;;;9.10;6.00;;;21.40;99.90;;;;;;5092698;28;20294;-77
2023/05/31 07:52:52;;;;;;;9.00;7.15;;;21.60;99.90;;;;;;5092005;28;20205;-78
2023/05/31 07:55:19;;;;;;;10.13;6.90;;;21.50;99.90;;;;;;5092321;28;20672;-76
2023/05/31 07:57:46;;;;;;;8.30;7.40;;;21.70;99.90;;;;;;5092090;28;20654;-77
2023/05/31 08:00:14;;;;;;;8.20;7.15;;;22.00;99.90;;;;;;5092445;28;20272;-75
2023/05/31 08:02:42;;;;;;;10.30;7.72;;;22.00;99.90;;;;;;5091623;28;20292;-77
2023/05/31 08:05:10;;;;;;;8.57;7.00;;;22.20;99.90;;;;;;5092261;28;20718;-75
2023/05/31 08:07:37;;;;;;;8.50;7.35;;;22.20;99.90;;;;;;5091263;28;20229;-79
2023/05/31 08:10:05;;;;;;;7.43;6.65;;;22.30;99.90;;;;;;5092048;28;20236;-75
2023/05/31 08:12:32;;;;;;;7.93;7.22;;;22.60;99.90;;;;;;5089731;28;20718;-77
2023/05/31 08:14:59;;;;;;;10.68;7.78;;;22.50;99.90;;;;;;5079869;28;20233;-75
2023/05/31 08:17:27;;;;;;;9.25;6.60;;;22.40;99.90;;;;;;5092364;28;20288;-76
2023/05/31 08:19:56;;;;;;;7.78;6.72;;;22.50;99.90;;;;;;5091864;28;20230;-77
2023/05/31 08:22:23;;;;;;;7.95;7.13;;;22.60;99.90;;;;;;5092250;28;20213;-77
2023/05/31 08:24:50;;;;;;;8.93;8.02;;;23.10;99.90;;;;;;5091481;28;20246;-75
2023/05/31 08:27:17;;;;;;;11.73;8.63;;;22.80;99.90;;;;;;5091697;28;20250;-75
2023/05/31 08:29:45;;;;;;;10.50;9.15;;;22.80;99.90;;;;;;5091663;28;20312;-78
2023/05/31 08:32:12;;;;;;;8.57;7.78;;;22.90;99.90;;;;;;5091619;28;20202;-77
2023/05/31 08:34:39;;;;;;;13.10;8.85;;;22.60;99.90;;;;;;5091167;28;20266;-79
2023/05/31 08:37:07;;;;;;;8.05;7.30;;;23.00;99.90;;;;;;5091184;28;20349;-76
2023/05/31 08:39:34;;;;;;;8.10;7.38;;;23.60;99.90;;;;;;5090449;28;20268;-75
2023/05/31 08:42:03;;;;;;;10.02;8.00;;;23.70;99.90;;;;;;5091461;28;20251;-77
2023/05/31 08:44:30;;;;;;;10.68;8.35;;;23.20;99.90;;;;;;5091062;28;20241;-76
2023/05/31 08:47:05;;;;;;;11.70;8.55;;;23.20;99.90;;;;;;5091104;28;20237;-78
2023/05/31 08:49:34;;;;;;;10.43;9.30;;;22.90;99.90;;;;;;5090741;28;20687;-77
2023/05/31 08:52:01;;;;;;;13.23;9.05;;;22.80;99.90;;;;;;5091076;28;20251;-76
2023/05/31 08:54:30;;;;;;;9.70;8.80;;;23.20;99.90;;;;;;5091323;28;20210;-79
2023/05/31 08:56:57;;;;;;;12.88;9.13;;;23.70;99.90;;;;;;5091187;28;20727;-77
2023/05/31 08:59:24;;;;;;;15.00;8.95;;;23.20;99.90;;;;;;5091196;28;20268;-81
2023/05/31 09:01:52;;;;;;;12.18;8.30;;;22.80;99.90;;;;;;5090932;28;20302;-81
2023/05/31 09:04:19;;;;;;;8.65;7.03;;;22.70;99.90;;;;;;5090963;28;20287;-80
2023/05/31 09:06:46;;;;;;;10.10;8.57;;;23.40;99.90;;;;;;5090936;28;20241;-79
2023/05/31 09:09:13;;;;;;;10.00;8.57;;;23.60;99.90;;;;;;5090801;28;20685;-78
2023/05/31 09:11:41;;;;;;;8.95;7.93;;;23.20;99.90;;;;;;5090569;28;20251;-77
2023/05/31 09:14:09;;;;;;;11.25;9.20;;;23.70;99.90;;;;;;5090773;28;20241;-78
2023/05/31 09:16:36;;;;;;;11.93;9.43;;;23.90;99.90;;;;;;5091007;28;20201;-78
2023/05/31 09:19:05;;;;;;;10.55;8.10;;;24.10;99.90;;;;;;5090853;28;20225;-76
2023/05/31 09:21:39;;;;;;;10.68;8.73;;;23.90;99.90;;;;;;5090165;28;20237;-79
2023/05/31 09:24:06;;;;;;;13.85;9.55;;;23.40;99.90;;;;;;5090758;28;20205;-79
2023/05/31 09:26:34;;;;;;;10.43;8.45;;;24.70;99.90;;;;;;5089955;28;20241;-76
2023/05/31 09:29:07;;;;;;;10.52;7.97;;;25.10;99.90;;;;;;5090749;28;20241;-75
2023/05/31 09:31:34;;;;;;;9.25;8.35;;;24.90;99.90;;;;;;5090312;28;20241;-78
2023/05/31 09:34:00;;;;;;;9.05;7.45;;;26.40;99.90;;;;;;5090348;28;20248;-78
2023/05/31 09:36:30;;;;;;;8.13;7.38;;;25.40;99.90;;;;;;5090664;28;20206;-75
2023/05/31 09:39:03;;;;;;;10.18;7.70;;;29.40;99.90;;;;;;5090182;28;20710;-75
2023/05/31 09:41:31;;;;;;;8.13;7.43;;;31.80;99.90;;;;;;5090052;28;20216;-77
2023/05/31 09:43:58;;;;;;;8.63;7.55;;;31.10;99.90;;;;;;5090450;28;20201;-79
2023/05/31 09:46:27;;;;;;;8.52;7.65;;;32.20;99.90;;;;;;5091129;28;20244;-77
2023/05/31 09:49:03;;;;;;;9.00;6.72;;;32.60;99.90;;;;;;5090512;28;20247;-76
2023/05/31 09:51:32;;;;;;;7.88;6.90;;;31.90;99.90;;;;;;5094247;28;20251;-75
2023/05/31 09:54:01;;;;;;;8.50;7.60;;;34.90;99.90;;;;;;5094669;28;20261;-75
2023/05/31 09:56:29;;;;;;;10.02;7.80;;;37.20;99.90;;;;;;5094829;28;20215;-76
2023/05/31 09:58:57;;;;;;;10.05;7.57;;;37.70;99.90;;;;;;5094798;28;20215;-76
2023/05/31 10:01:26;;;;;;;8.20;7.40;;;37.80;99.90;;;;;;5094688;28;20228;-78
2023/05/31 10:03:54;;;;;;;8.63;7.93;;;38.00;99.90;;;;;;5093977;28;20204;-77
2023/05/31 10:06:21;;;;;;;9.15;8.25;;;38.80;99.90;;;;;;5094787;28;20247;-76
2023/05/31 10:08:48;;;;;;;9.20;7.70;;;38.20;99.90;;;;;;5094002;28;20637;-76
2023/05/31 10:11:19;;;;;;;8.05;7.22;;;36.90;99.90;;;;;;5094030;28;20672;-78
2023/05/31 10:13:49;;;;;;;8.13;7.38;;;35.90;99.90;;;;;;5093936;28;20201;-77
2023/05/31 10:16:18;;;;;;;8.02;7.15;;;37.70;99.90;;;;;;5094029;28;21201;-78
2023/05/31 10:18:50;;;;;;;8.52;6.97;;;38.60;99.90;;;;;;5093256;28;20240;-79
2023/05/31 10:21:22;;;;;;;18.13;9.52;;;39.70;99.90;;;;;;5094356;28;20213;-76
2023/05/31 10:23:57;;;;;;;9.98;8.30;;;39.90;99.90;;;;;;5093826;28;20323;-76
2023/05/31 10:26:28;;;;;;;10.65;7.45;;;39.80;99.90;;;;;;5094248;28;20246;-76
2023/05/31 10:29:00;;;;;;;8.27;7.47;;;40.00;99.90;;;;;;5094306;28;20247;-77
2023/05/31 10:31:33;;;;;;;9.70;7.40;;;35.90;99.90;;;;;;5094158;28;20240;-76
2023/05/31 10:34:19;;;;;;;9.75;8.02;;;32.00;99.90;;;;;;5066781;28;20204;-77
2023/05/31 10:36:46;;;;;;;9.32;7.90;;;29.80;99.90;;;;;;5093420;28;20248;-79
2023/05/31 10:39:22;;;;;;;8.80;8.00;;;28.20;99.90;;;;;;5093696;28;20239;-79
2023/05/31 10:41:55;;;;;;;8.63;7.82;;;27.70;99.90;;;;;;5093209;28;20746;-75
2023/05/31 10:44:33;;;;;;;9.52;7.47;;;27.50;99.90;;;;;;5094315;28;20240;-76
2023/05/31 10:47:09;;;;;;;8.65;7.75;;;27.30;99.90;;;;;;5093511;28;20229;-77
2023/05/31 10:49:38;;;;;;;7.93;6.95;;;27.00;99.90;;;;;;5093217;28;20216;-79
2023/05/31 10:52:06;;;;;;;9.85;7.55;;;26.70;99.90;;;;;;5093405;28;20240;-77
2023/05/31 10:54:34;;;;;;;7.50;6.72;;;26.60;99.90;;;;;;5093516;28;20237;-79
2023/05/31 10:57:05;;;;;;;7.57;6.88;;;26.70;99.90;;;;;;5093626;28;20205;-77
2023/05/31 10:59:41;;;;;;;7.88;6.97;;;26.70;99.90;;;;;;5093133;28;20231;-77
2023/05/31 11:02:10;;;;;;;9.23;7.63;;;26.70;99.90;;;;;;5092301;28;20209;-78
2023/05/31 11:04:39;;;;;;;8.55;6.70;;;26.60;99.90;;;;;;5092937;28;20274;-77
2023/05/31 11:07:17;;;;;;;8.40;7.53;;;27.00;99.90;;;;;;5093641;28;20209;-75
2023/05/31 11:09:58;;;;;;;8.90;7.35;;;27.40;99.90;;;;;;5093100;28;20262;-79
2023/05/31 11:12:33;;;;;;;7.97;7.18;;;27.20;99.90;;;;;;5093215;28;20558;-78
2023/05/31 11:15:01;;;;;;;8.98;7.50;;;27.70;99.90;;;;;;5093050;28;20205;-76
2023/05/31 11:17:28;;;;;;;8.27;7.47;;;27.60;99.90;;;;;;5092898;28;20241;-77
2023/05/31 11:19:57;;;;;;;9.02;6.85;;;27.80;99.90;;;;;;5093160;28;20267;-75
2023/05/31 11:22:27;;;;;;;9.73;7.45;;;27.90;99.90;;;;;;5093289;28;20201;-79
2023/05/31 11:24:57;;;;;;;9.05;7.72;;;27.60;99.90;;;;;;5093327;28;20584;-79
2023/05/31 11:27:35;;;;;;;9.00;7.40;;;27.70;99.90;;;;;;5093109;28;20205;-78
2023/05/31 11:30:02;;;;;;;8.95;6.65;;;27.40;99.90;;;;;;5092618;28;20431;-78
2023/05/31 11:32:55;;;;;;;8.57;7.30;;;27.20;99.90;;;;;;5092412;28;20746;-78
2023/05/31 11:35:25;;;;;;;8.75;6.97;;;27.30;99.90;;;;;;5092976;28;20251;-78
2023/05/31 11:38:07;;;;;;;8.27;7.47;;;27.20;99.90;;;;;;5092443;28;20209;-78
2023/05/31 11:40:35;;;;;;;7.70;6.32;;;27.20;99.90;;;;;;5092138;28;20267;-75
2023/05/31 11:43:11;;;;;;;9.43;7.32;;;27.50;99.90;;;;;;5092718;28;20214;-78
2023/05/31 11:45:45;;;;;;;7.90;7.20;;;27.40;99.90;;;;;;5091930;28;20205;-76
2023/05/31 11:48:35;;;;;;;7.85;6.70;;;27.20;99.90;;;;;;5092436;28;20217;-78
2023/05/31 11:51:05;;;;;;;7.35;6.65;;;27.30;99.90;;;;;;5066395;28;20246;-78
2023/05/31 11:53:32;;;;;;;6.45;5.88;;;27.10;99.90;;;;;;5092192;28;20210;-76
2023/05/31 11:55:59;;;;;;;6.40;5.80;;;27.10;99.90;;;;;;5092525;28;20229;-75
2023/05/31 11:58:27;;;;;;;8.57;7.13;;;26.90;99.90;;;;;;5092547;28;20206;-75
2023/05/31 12:00:59;;;;;;;7.43;6.72;;;26.70;99.90;;;;;;5077624;28;20236;-76
2023/05/31 12:03:26;;;;;;;13.20;6.45;;;27.10;99.90;;;;;;5092581;28;20202;-75
2023/05/31 12:05:58;;;;;;;17.27;6.55;;;27.50;99.90;;;;;;5091969;28;20229;-76
2023/05/31 12:08:28;;;;;;;7.55;6.85;;;27.70;99.90;;;;;;5092263;28;20690;-76
2023/05/31 12:11:02;;;;;;;8.65;6.28;;;27.50;99.90;;;;;;5092330;28;20257;-75
2023/05/31 12:13:29;;;;;;;7.30;6.47;;;27.30;99.90;;;;;;5090457;28;20208;-75
2023/05/31 12:15:57;;;;;;;7.80;6.07;;;27.20;99.90;;;;;;5092056;28;20206;-76
2023/05/31 12:18:24;;;;;;;6.30;5.70;;;27.50;99.90;;;;;;5092281;28;20284;-75
2023/05/31 12:20:51;;;;;;;6.72;6.10;;;27.50;99.90;;;;;;5091627;28;20233;-76
2023/05/31 12:23:19;;;;;;;7.70;5.50;;;27.60;99.90;;;;;;5092245;28;20237;-76
2023/05/31 12:25:51;;;;;;;6.40;5.82;;;27.50;99.90;;;;;;5091287;28;20240;-76
2023/05/31 12:28:19;;;;;;;6.60;5.95;;;27.50;99.90;;;;;;5091523;28;20241;-78
2023/05/31 12:30:47;;;;;;;19.67;8.23;;;27.80;99.90;;;;;;5091551;28;20885;-77
2023/05/31 12:33:14;;;;;;;12.68;5.68;;;27.80;99.90;;;;;;5091532;28;20270;-77
2023/05/31 12:35:42;;;;;;;8.93;5.75;;;27.90;99.90;;;;;;5091226;28;20201;-79
2023/05/31 12:38:09;;;;;;;9.35;6.25;;;27.60;99.90;;;;;;5091419;28;20197;-77
2023/05/31 12:40:38;;;;;;;5.78;5.28;;;27.80;99.90;;;;;;5091231;28;20269;-75
2023/05/31 12:43:07;;;;;;;6.90;5.40;;;27.50;99.90;;;;;;5091164;28;20291;-77
2023/05/31 12:45:40;;;;;;;7.72;5.32;;;27.60;99.90;;;;;;5091276;28;20210;-76
2023/05/31 12:48:08;;;;;;;6.32;5.45;;;27.30;99.90;;;;;;5091282;28;20197;-78
2023/05/31 12:50:35;;;;;;;8.43;6.88;;;27.10;99.90;;;;;;5090757;28;20669;-75
2023/05/31 12:53:06;;;;;;;6.45;5.70;;;27.10;99.90;;;;;;5091297;28;20209;-77